Share

Aspermont, TX

WT_Meso Aspermont 3NE (MASST2) Elev 1740 ft | 33.17 °N, 100.20 °W | Change Station

Current weather conditions updated 30 minutes ago

Overcast
Overcast
61 °F
Feels Like 61 °F
N
7
Wind Variable Wind from SSE
Gusts 10.0 mph
Sunrise 7:08 AM
Sunset 8:13 PM
Moon Waning Gibbous

Today is forecast to be Much Cooler than yesterday.

Pressure 30.14 in
Visibility 10.0 miles
Clouds Mostly Cloudy 800 ft
Overcast 1700 ft
Dew Point 50 °F
Humidity 67%
Rainfall -999.00 in
Snow Depth Not available.
UV 3 out of 16
Pollen 8.30 out of 12
Air Quality Not available.
Flu Activity Local Activity
METAR KSWW 171815Z AUTO 09006KT 10SM BKN008 OVC017 15/12 A3014 RMK AO2 T01500120

More Conditions Fewer Conditions

Pressure 30.14 in
Visibility 10.0 miles
Clouds Mostly Cloudy 800 ft
Overcast 1700 ft
Dew Point 50 °F
Humidity 67%
Rainfall -999.00 in
Snow Depth Not available.
UV 3 out of 16
Pollen 8.30 out of 12
Air Quality Not available.
Flu Activity Local Activity
METAR KSWW 171815Z AUTO 09006KT 10SM BKN008 OVC017 15/12 A3014 RMK AO2 T01500120

More Conditions Fewer Conditions

10-Day Forecast

Almanac

Astronomy

Apr. 17, 2014 Rise Set
Actual Time 7:08 AM CDT 8:13 PM CDT
Civil Twilight 6:43 AM CDT 8:38 PM CDT
Nautical Twilight 6:12 AM CDT 9:08 PM CDT
Astronomical Twilight 5:41 AM CDT 9:40 PM CDT
Moon 10:54 PM CDT 8:47 AM CDT
Length of Visible Light 13h 55m
Length of Day
13h 04m
Tomorrow will be 1m 55s longer.
Waning Gibbous, 93% of the Moon is Illuminated
Today
Waning Gibbous
Apr 22
Last Quarter
Apr 29
New
May 6
First Quarter
May 14
Full

Today's Extremes

State Highs State Lows

Community

  • New Day
    New Day
  • Lake Michigan Sunrise
    Lake Michigan Sunrise
  • sunset from izmir, narlıdere
    sunset from izmir, narlıdere
  • oregon cherry
    oregon cherry
  • Sunset over the Bay
    Sunset over the Bay

WunderPhotos

Upload Photos

1,702,089 photos uploaded!

Nearby

Snow Depth

Station Depth Elevation
No new snow has been reported.

Coastal Water Temperatures

Place Temperature
No Stations Reporting

Earthquake Activity

City Distance Mag. Time & Date
No recent earthquake activity has been reported nearby.
Minimum magnitude displayed is 2.5.

Nearby Weather Stations

Station Location Temp. Dew Point Humidity Wind Precip. Elev Updated Type
WT_Meso Aspermont 3NE, Aspermont, TX 61 °F 50 °F 67% SSE  at  7 mph 0.00 in / hr 1740 ft 12:55 PM CDT MADIS
WT_Meso Jayton 1S, Girard, TX 61 °F 50 °F 68% SE  at  9 mph 0.00 in / hr 2009 ft 12:45 PM CDT MADIS
Hamlin, TX 65.1 °F 52 °F 62% SE  at  5.8 mph - / hr 1834 ft 1:17 PM CDT Normal

Show More Stations Show Fewer Stations

What do you think?

We're not finished. Please let us know what you like, what you don't like, and what you are still missing.